sensor_id;sensor_type;location;lat;lon;timestamp;temperature;humidity
45843;DHT22;31563;51.744;8.252;2023-07-29T00:01:55;24.20;70.30
45843;DHT22;31563;51.744;8.252;2023-07-29T00:04:23;24.30;70.40
45843;DHT22;31563;51.744;8.252;2023-07-29T00:06:51;24.20;70.40
45843;DHT22;31563;51.744;8.252;2023-07-29T00:09:19;24.20;70.50
45843;DHT22;31563;51.744;8.252;2023-07-29T00:11:46;24.30;71.10
45843;DHT22;31563;51.744;8.252;2023-07-29T00:14:14;24.30;70.60
45843;DHT22;31563;51.744;8.252;2023-07-29T00:16:42;24.20;70.70
45843;DHT22;31563;51.744;8.252;2023-07-29T00:19:11;24.20;70.70
45843;DHT22;31563;51.744;8.252;2023-07-29T00:21:39;24.20;70.80
45843;DHT22;31563;51.744;8.252;2023-07-29T00:24:07;24.10;70.90
45843;DHT22;31563;51.744;8.252;2023-07-29T00:26:35;24.20;71.00
45843;DHT22;31563;51.744;8.252;2023-07-29T00:29:03;24.10;70.90
45843;DHT22;31563;51.744;8.252;2023-07-29T00:31:31;24.10;71.00
45843;DHT22;31563;51.744;8.252;2023-07-29T00:33:59;24.10;71.00
45843;DHT22;31563;51.744;8.252;2023-07-29T00:36:28;24.10;71.10
45843;DHT22;31563;51.744;8.252;2023-07-29T00:38:55;24.10;71.10
45843;DHT22;31563;51.744;8.252;2023-07-29T00:41:24;24.10;71.20
45843;DHT22;31563;51.744;8.252;2023-07-29T00:43:52;24.10;71.40
45843;DHT22;31563;51.744;8.252;2023-07-29T00:46:20;24.10;71.30
45843;DHT22;31563;51.744;8.252;2023-07-29T00:48:47;24.10;71.40
45843;DHT22;31563;51.744;8.252;2023-07-29T00:51:15;24.10;71.60
45843;DHT22;31563;51.744;8.252;2023-07-29T00:53:44;24.00;71.60
45843;DHT22;31563;51.744;8.252;2023-07-29T00:56:12;24.10;71.90
45843;DHT22;31563;51.744;8.252;2023-07-29T00:58:40;24.00;71.80
45843;DHT22;31563;51.744;8.252;2023-07-29T01:01:08;24.00;72.00
45843;DHT22;31563;51.744;8.252;2023-07-29T01:03:36;24.00;72.10
45843;DHT22;31563;51.744;8.252;2023-07-29T01:06:08;24.00;72.30
45843;DHT22;31563;51.744;8.252;2023-07-29T01:08:37;24.00;72.80
45843;DHT22;31563;51.744;8.252;2023-07-29T01:11:11;23.90;73.00
45843;DHT22;31563;51.744;8.252;2023-07-29T01:13:42;23.90;73.10
45843;DHT22;31563;51.744;8.252;2023-07-29T01:16:13;23.90;73.40
45843;DHT22;31563;51.744;8.252;2023-07-29T01:18:43;23.90;73.50
45843;DHT22;31563;51.744;8.252;2023-07-29T01:21:12;23.90;73.30
45843;DHT22;31563;51.744;8.252;2023-07-29T01:23:42;23.90;74.10
45843;DHT22;31563;51.744;8.252;2023-07-29T01:26:10;23.90;74.10
45843;DHT22;31563;51.744;8.252;2023-07-29T01:28:37;23.90;74.70
45843;DHT22;31563;51.744;8.252;2023-07-29T01:31:07;23.90;74.40
45843;DHT22;31563;51.744;8.252;2023-07-29T01:33:38;23.90;74.60
45843;DHT22;31563;51.744;8.252;2023-07-29T01:36:07;23.80;74.50
45843;DHT22;31563;51.744;8.252;2023-07-29T01:38:36;23.80;74.60
45843;DHT22;31563;51.744;8.252;2023-07-29T01:41:07;23.80;74.50
45843;DHT22;31563;51.744;8.252;2023-07-29T01:43:35;23.80;74.70
45843;DHT22;31563;51.744;8.252;2023-07-29T01:46:08;23.80;74.60
45843;DHT22;31563;51.744;8.252;2023-07-29T01:48:36;23.80;74.90
45843;DHT22;31563;51.744;8.252;2023-07-29T01:51:04;23.80;75.10
45843;DHT22;31563;51.744;8.252;2023-07-29T01:53:32;23.80;75.00
45843;DHT22;31563;51.744;8.252;2023-07-29T01:56:00;23.70;75.20
45843;DHT22;31563;51.744;8.252;2023-07-29T01:58:29;23.70;75.40
45843;DHT22;31563;51.744;8.252;2023-07-29T02:00:57;23.70;75.50
45843;DHT22;31563;51.744;8.252;2023-07-29T02:03:25;23.70;75.90
45843;DHT22;31563;51.744;8.252;2023-07-29T02:05:52;23.70;76.00
45843;DHT22;31563;51.744;8.252;2023-07-29T02:08:20;23.70;76.00
45843;DHT22;31563;51.744;8.252;2023-07-29T02:10:48;23.70;75.80
45843;DHT22;31563;51.744;8.252;2023-07-29T02:13:15;23.70;75.80
45843;DHT22;31563;51.744;8.252;2023-07-29T02:15:44;23.80;76.40
45843;DHT22;31563;51.744;8.252;2023-07-29T02:18:12;23.80;76.20
45843;DHT22;31563;51.744;8.252;2023-07-29T02:20:40;23.80;76.50
45843;DHT22;31563;51.744;8.252;2023-07-29T02:23:15;23.80;75.80
45843;DHT22;31563;51.744;8.252;2023-07-29T02:25:43;23.80;75.80
45843;DHT22;31563;51.744;8.252;2023-07-29T02:28:11;23.80;76.10
45843;DHT22;31563;51.744;8.252;2023-07-29T02:30:40;23.70;76.30
45843;DHT22;31563;51.744;8.252;2023-07-29T02:33:12;23.70;76.20
45843;DHT22;31563;51.744;8.252;2023-07-29T02:35:40;24.00;76.40
45843;DHT22;31563;51.744;8.252;2023-07-29T02:38:07;23.70;76.40
45843;DHT22;31563;51.744;8.252;2023-07-29T02:40:35;23.70;76.50
45843;DHT22;31563;51.744;8.252;2023-07-29T02:43:03;23.70;76.70
45843;DHT22;31563;51.744;8.252;2023-07-29T02:45:30;23.70;77.00
45843;DHT22;31563;51.744;8.252;2023-07-29T02:47:58;23.70;76.90
45843;DHT22;31563;51.744;8.252;2023-07-29T02:50:28;23.60;76.90
45843;DHT22;31563;51.744;8.252;2023-07-29T02:52:55;23.70;77.10
45843;DHT22;31563;51.744;8.252;2023-07-29T02:55:23;23.60;76.90
45843;DHT22;31563;51.744;8.252;2023-07-29T02:57:51;23.70;76.90
45843;DHT22;31563;51.744;8.252;2023-07-29T03:00:18;23.60;77.10
45843;DHT22;31563;51.744;8.252;2023-07-29T03:02:47;23.60;77.10
45843;DHT22;31563;51.744;8.252;2023-07-29T03:05:14;23.60;77.10
45843;DHT22;31563;51.744;8.252;2023-07-29T03:07:44;23.60;77.10
45843;DHT22;31563;51.744;8.252;2023-07-29T03:10:11;23.60;77.30
45843;DHT22;31563;51.744;8.252;2023-07-29T03:12:40;23.60;77.20
45843;DHT22;31563;51.744;8.252;2023-07-29T03:15:08;23.50;77.10
45843;DHT22;31563;51.744;8.252;2023-07-29T03:17:36;23.60;77.50
45843;DHT22;31563;51.744;8.252;2023-07-29T03:20:04;23.50;77.50
45843;DHT22;31563;51.744;8.252;2023-07-29T03:22:32;23.50;77.20
45843;DHT22;31563;51.744;8.252;2023-07-29T03:25:01;23.50;77.30
45843;DHT22;31563;51.744;8.252;2023-07-29T03:27:29;23.50;77.60
45843;DHT22;31563;51.744;8.252;2023-07-29T03:29:57;23.50;77.70
45843;DHT22;31563;51.744;8.252;2023-07-29T03:32:25;23.50;77.60
45843;DHT22;31563;51.744;8.252;2023-07-29T03:34:53;23.50;77.60
45843;DHT22;31563;51.744;8.252;2023-07-29T03:37:20;23.50;77.60
45843;DHT22;31563;51.744;8.252;2023-07-29T03:39:48;23.50;78.20
45843;DHT22;31563;51.744;8.252;2023-07-29T03:42:19;23.50;78.00
45843;DHT22;31563;51.744;8.252;2023-07-29T03:44:47;23.50;78.20
45843;DHT22;31563;51.744;8.252;2023-07-29T03:47:15;23.50;78.10
45843;DHT22;31563;51.744;8.252;2023-07-29T03:49:43;23.50;78.20
45843;DHT22;31563;51.744;8.252;2023-07-29T03:52:10;23.50;77.80
45843;DHT22;31563;51.744;8.252;2023-07-29T03:54:38;23.50;77.90
45843;DHT22;31563;51.744;8.252;2023-07-29T03:57:06;23.40;78.00
45843;DHT22;31563;51.744;8.252;2023-07-29T03:59:35;23.50;78.10
45843;DHT22;31563;51.744;8.252;2023-07-29T04:02:03;23.50;78.20
45843;DHT22;31563;51.744;8.252;2023-07-29T04:04:30;23.40;78.20
45843;DHT22;31563;51.744;8.252;2023-07-29T04:06:58;23.40;78.40
45843;DHT22;31563;51.744;8.252;2023-07-29T04:09:26;23.50;78.00
45843;DHT22;31563;51.744;8.252;2023-07-29T04:11:54;23.50;77.80
45843;DHT22;31563;51.744;8.252;2023-07-29T04:14:22;23.50;77.70
45843;DHT22;31563;51.744;8.252;2023-07-29T04:16:51;23.50;77.80
45843;DHT22;31563;51.744;8.252;2023-07-29T04:19:19;23.50;77.40
45843;DHT22;31563;51.744;8.252;2023-07-29T04:21:47;23.60;77.40
45843;DHT22;31563;51.744;8.252;2023-07-29T04:24:17;23.60;77.30
45843;DHT22;31563;51.744;8.252;2023-07-29T04:26:46;23.60;77.30
45843;DHT22;31563;51.744;8.252;2023-07-29T04:29:14;23.60;77.40
45843;DHT22;31563;51.744;8.252;2023-07-29T04:31:41;23.60;77.40
45843;DHT22;31563;51.744;8.252;2023-07-29T04:34:10;23.60;77.20
45843;DHT22;31563;51.744;8.252;2023-07-29T04:36:38;23.60;77.10
45843;DHT22;31563;51.744;8.252;2023-07-29T04:39:06;23.60;77.00
45843;DHT22;31563;51.744;8.252;2023-07-29T04:41:34;23.60;77.00
45843;DHT22;31563;51.744;8.252;2023-07-29T04:44:02;23.70;76.90
45843;DHT22;31563;51.744;8.252;2023-07-29T04:46:30;23.70;76.80
45843;DHT22;31563;51.744;8.252;2023-07-29T04:48:57;23.70;76.80
45843;DHT22;31563;51.744;8.252;2023-07-29T04:51:26;23.70;76.90
45843;DHT22;31563;51.744;8.252;2023-07-29T04:53:54;23.70;76.70
45843;DHT22;31563;51.744;8.252;2023-07-29T04:56:22;23.70;76.80
45843;DHT22;31563;51.744;8.252;2023-07-29T04:58:49;23.80;76.60
45843;DHT22;31563;51.744;8.252;2023-07-29T05:01:17;23.80;76.70
45843;DHT22;31563;51.744;8.252;2023-07-29T05:03:45;23.80;76.40
45843;DHT22;31563;51.744;8.252;2023-07-29T05:06:13;23.80;76.70
45843;DHT22;31563;51.744;8.252;2023-07-29T05:08:42;23.80;76.40
45843;DHT22;31563;51.744;8.252;2023-07-29T05:11:10;23.80;76.60
45843;DHT22;31563;51.744;8.252;2023-07-29T05:13:37;23.90;76.50
45843;DHT22;31563;51.744;8.252;2023-07-29T05:16:05;23.90;76.20
45843;DHT22;31563;51.744;8.252;2023-07-29T05:18:33;23.90;76.20
45843;DHT22;31563;51.744;8.252;2023-07-29T05:21:01;23.90;76.10
45843;DHT22;31563;51.744;8.252;2023-07-29T05:23:28;23.90;76.20
45843;DHT22;31563;51.744;8.252;2023-07-29T05:25:57;24.00;75.70
45843;DHT22;31563;51.744;8.252;2023-07-29T05:28:25;24.00;75.90
45843;DHT22;31563;51.744;8.252;2023-07-29T05:30:53;24.10;75.60
45843;DHT22;31563;51.744;8.252;2023-07-29T05:33:21;24.10;75.40
45843;DHT22;31563;51.744;8.252;2023-07-29T05:35:48;24.10;75.30
45843;DHT22;31563;51.744;8.252;2023-07-29T05:38:16;24.10;75.40
45843;DHT22;31563;51.744;8.252;2023-07-29T05:40:44;23.90;76.60
45843;DHT22;31563;51.744;8.252;2023-07-29T05:43:13;23.60;77.70
45843;DHT22;31563;51.744;8.252;2023-07-29T05:45:41;23.40;78.50
45843;DHT22;31563;51.744;8.252;2023-07-29T05:48:08;23.50;79.20
45843;DHT22;31563;51.744;8.252;2023-07-29T05:50:36;23.50;79.40
45843;DHT22;31563;51.744;8.252;2023-07-29T05:53:04;23.40;79.60
45843;DHT22;31563;51.744;8.252;2023-07-29T05:55:31;23.40;79.60
45843;DHT22;31563;51.744;8.252;2023-07-29T05:57:59;23.40;79.90
45843;DHT22;31563;51.744;8.252;2023-07-29T06:00:28;23.40;79.90
45843;DHT22;31563;51.744;8.252;2023-07-29T06:02:56;23.50;79.90
45843;DHT22;31563;51.744;8.252;2023-07-29T06:05:24;23.60;79.40
45843;DHT22;31563;51.744;8.252;2023-07-29T06:07:52;23.50;79.50
45843;DHT22;31563;51.744;8.252;2023-07-29T06:10:19;23.40;79.90
45843;DHT22;31563;51.744;8.252;2023-07-29T06:12:48;23.40;80.30
45843;DHT22;31563;51.744;8.252;2023-07-29T06:15:16;23.40;80.50
45843;DHT22;31563;51.744;8.252;2023-07-29T06:17:45;23.40;80.20
45843;DHT22;31563;51.744;8.252;2023-07-29T06:20:13;23.40;80.40
45843;DHT22;31563;51.744;8.252;2023-07-29T06:22:41;23.30;80.50
45843;DHT22;31563;51.744;8.252;2023-07-29T06:25:09;23.40;80.60
45843;DHT22;31563;51.744;8.252;2023-07-29T06:27:37;23.40;80.40
45843;DHT22;31563;51.744;8.252;2023-07-29T06:30:05;23.30;80.80
45843;DHT22;31563;51.744;8.252;2023-07-29T06:32:33;23.30;81.20
45843;DHT22;31563;51.744;8.252;2023-07-29T06:35:02;23.30;81.10
45843;DHT22;31563;51.744;8.252;2023-07-29T06:37:30;23.30;80.60
45843;DHT22;31563;51.744;8.252;2023-07-29T06:39:59;23.50;80.50
45843;DHT22;31563;51.744;8.252;2023-07-29T06:42:27;23.40;80.80
45843;DHT22;31563;51.744;8.252;2023-07-29T06:44:55;23.40;80.70
45843;DHT22;31563;51.744;8.252;2023-07-29T06:47:22;23.40;80.80
45843;DHT22;31563;51.744;8.252;2023-07-29T06:49:50;23.40;80.90
45843;DHT22;31563;51.744;8.252;2023-07-29T06:52:19;23.30;81.10
45843;DHT22;31563;51.744;8.252;2023-07-29T06:54:47;23.30;81.40
45843;DHT22;31563;51.744;8.252;2023-07-29T06:57:15;23.20;81.70
45843;DHT22;31563;51.744;8.252;2023-07-29T06:59:42;23.00;82.80
45843;DHT22;31563;51.744;8.252;2023-07-29T07:02:10;23.00;82.70
45843;DHT22;31563;51.744;8.252;2023-07-29T07:04:38;23.40;80.80
45843;DHT22;31563;51.744;8.252;2023-07-29T07:07:05;23.40;81.00
45843;DHT22;31563;51.744;8.252;2023-07-29T07:09:35;23.40;81.00
45843;DHT22;31563;51.744;8.252;2023-07-29T07:12:02;23.50;80.50
45843;DHT22;31563;51.744;8.252;2023-07-29T07:14:30;23.40;80.30
45843;DHT22;31563;51.744;8.252;2023-07-29T07:16:58;23.60;79.20
45843;DHT22;31563;51.744;8.252;2023-07-29T07:19:26;23.70;77.80
45843;DHT22;31563;51.744;8.252;2023-07-29T07:21:53;23.70;77.60
45843;DHT22;31563;51.744;8.252;2023-07-29T07:24:21;23.90;76.80
45843;DHT22;31563;51.744;8.252;2023-07-29T07:26:50;24.00;76.40
45843;DHT22;31563;51.744;8.252;2023-07-29T07:29:18;24.10;75.00
45843;DHT22;31563;51.744;8.252;2023-07-29T07:31:49;24.20;74.50
45843;DHT22;31563;51.744;8.252;2023-07-29T07:34:17;24.30;74.20
45843;DHT22;31563;51.744;8.252;2023-07-29T07:36:45;24.40;73.90
45843;DHT22;31563;51.744;8.252;2023-07-29T07:39:12;24.50;73.30
45843;DHT22;31563;51.744;8.252;2023-07-29T07:41:40;24.60;72.60
45843;DHT22;31563;51.744;8.252;2023-07-29T07:44:09;24.60;72.10
45843;DHT22;31563;51.744;8.252;2023-07-29T07:46:37;24.60;71.90
45843;DHT22;31563;51.744;8.252;2023-07-29T07:49:06;24.60;71.40
45843;DHT22;31563;51.744;8.252;2023-07-29T07:51:33;24.30;72.00
45843;DHT22;31563;51.744;8.252;2023-07-29T07:54:01;24.20;71.00
45843;DHT22;31563;51.744;8.252;2023-07-29T07:56:29;24.00;71.70
45843;DHT22;31563;51.744;8.252;2023-07-29T07:58:56;24.20;71.10
45843;DHT22;31563;51.744;8.252;2023-07-29T08:01:25;24.20;71.20
45843;DHT22;31563;51.744;8.252;2023-07-29T08:03:53;24.20;70.20
45843;DHT22;31563;51.744;8.252;2023-07-29T08:06:21;24.20;70.00
45843;DHT22;31563;51.744;8.252;2023-07-29T08:08:49;24.30;69.50
45843;DHT22;31563;51.744;8.252;2023-07-29T08:11:16;24.60;68.70
45843;DHT22;31563;51.744;8.252;2023-07-29T08:13:44;25.00;66.20
45843;DHT22;31563;51.744;8.252;2023-07-29T08:16:12;25.50;63.10
45843;DHT22;31563;51.744;8.252;2023-07-29T08:18:41;25.80;62.10
45843;DHT22;31563;51.744;8.252;2023-07-29T08:21:08;25.80;60.80
45843;DHT22;31563;51.744;8.252;2023-07-29T08:23:36;25.80;59.70
45843;DHT22;31563;51.744;8.252;2023-07-29T08:26:04;25.50;59.10
45843;DHT22;31563;51.744;8.252;2023-07-29T08:28:34;25.20;60.60
45843;DHT22;31563;51.744;8.252;2023-07-29T08:31:02;25.60;60.80
45843;DHT22;31563;51.744;8.252;2023-07-29T08:33:30;26.10;59.70
45843;DHT22;31563;51.744;8.252;2023-07-29T08:36:01;26.20;57.90
45843;DHT22;31563;51.744;8.252;2023-07-29T08:38:29;26.30;56.80
45843;DHT22;31563;51.744;8.252;2023-07-29T08:40:58;26.20;56.00
45843;DHT22;31563;51.744;8.252;2023-07-29T08:43:28;26.10;55.30
45843;DHT22;31563;51.744;8.252;2023-07-29T08:45:57;25.90;55.90
45843;DHT22;31563;51.744;8.252;2023-07-29T08:48:28;26.00;56.50
45843;DHT22;31563;51.744;8.252;2023-07-29T08:50:56;26.70;55.60
45843;DHT22;31563;51.744;8.252;2023-07-29T08:53:26;26.50;54.70
45843;DHT22;31563;51.744;8.252;2023-07-29T08:55:53;26.50;54.60
45843;DHT22;31563;51.744;8.252;2023-07-29T08:58:22;27.10;53.80
45843;DHT22;31563;51.744;8.252;2023-07-29T09:00:50;27.90;52.30
45843;DHT22;31563;51.744;8.252;2023-07-29T09:03:19;28.50;51.40
45843;DHT22;31563;51.744;8.252;2023-07-29T09:05:47;28.90;50.30
45843;DHT22;31563;51.744;8.252;2023-07-29T09:08:14;29.10;49.20
45843;DHT22;31563;51.744;8.252;2023-07-29T09:10:43;29.50;48.50
45843;DHT22;31563;51.744;8.252;2023-07-29T09:13:11;29.70;47.30
45843;DHT22;31563;51.744;8.252;2023-07-29T09:15:39;29.70;47.70
45843;DHT22;31563;51.744;8.252;2023-07-29T09:18:08;29.80;47.30
45843;DHT22;31563;51.744;8.252;2023-07-29T09:20:37;30.00;45.50
45843;DHT22;31563;51.744;8.252;2023-07-29T09:23:06;29.90;45.90
45843;DHT22;31563;51.744;8.252;2023-07-29T09:25:34;29.50;46.30
45843;DHT22;31563;51.744;8.252;2023-07-29T09:28:08;29.90;46.20
45843;DHT22;31563;51.744;8.252;2023-07-29T09:30:37;30.50;45.60
45843;DHT22;31563;51.744;8.252;2023-07-29T09:33:04;31.40;45.00
45843;DHT22;31563;51.744;8.252;2023-07-29T09:35:33;31.40;43.80
45843;DHT22;31563;51.744;8.252;2023-07-29T09:38:01;30.40;45.30
45843;DHT22;31563;51.744;8.252;2023-07-29T09:40:34;30.10;46.90
45843;DHT22;31563;51.744;8.252;2023-07-29T09:43:01;30.20;45.70
45843;DHT22;31563;51.744;8.252;2023-07-29T09:45:33;30.60;45.90
45843;DHT22;31563;51.744;8.252;2023-07-29T09:48:01;29.80;46.00
45843;DHT22;31563;51.744;8.252;2023-07-29T09:50:29;30.00;45.40
45843;DHT22;31563;51.744;8.252;2023-07-29T09:52:57;31.30;44.80
45843;DHT22;31563;51.744;8.252;2023-07-29T09:55:25;32.40;43.00
45843;DHT22;31563;51.744;8.252;2023-07-29T09:57:54;32.30;41.10
45843;DHT22;31563;51.744;8.252;2023-07-29T10:00:23;32.20;42.90
45843;DHT22;31563;51.744;8.252;2023-07-29T10:02:52;33.10;41.00
45843;DHT22;31563;51.744;8.252;2023-07-29T10:05:21;33.40;39.50
45843;DHT22;31563;51.744;8.252;2023-07-29T10:07:49;33.10;41.00
45843;DHT22;31563;51.744;8.252;2023-07-29T10:10:17;33.80;39.80
45843;DHT22;31563;51.744;8.252;2023-07-29T10:12:45;33.70;41.10
45843;DHT22;31563;51.744;8.252;2023-07-29T10:15:13;33.70;40.80
45843;DHT22;31563;51.744;8.252;2023-07-29T10:17:41;34.00;41.10
45843;DHT22;31563;51.744;8.252;2023-07-29T10:20:10;33.70;39.60
45843;DHT22;31563;51.744;8.252;2023-07-29T10:22:39;34.20;40.50
45843;DHT22;31563;51.744;8.252;2023-07-29T10:25:07;33.80;38.20
45843;DHT22;31563;51.744;8.252;2023-07-29T10:27:38;34.20;39.60
45843;DHT22;31563;51.744;8.252;2023-07-29T10:30:10;35.10;38.30
45843;DHT22;31563;51.744;8.252;2023-07-29T10:32:38;35.90;37.40
45843;DHT22;31563;51.744;8.252;2023-07-29T10:35:06;37.10;35.90
45843;DHT22;31563;51.744;8.252;2023-07-29T10:37:35;38.00;35.50
45843;DHT22;31563;51.744;8.252;2023-07-29T10:40:05;38.70;34.70
45843;DHT22;31563;51.744;8.252;2023-07-29T10:42:33;39.00;34.00
45843;DHT22;31563;51.744;8.252;2023-07-29T10:45:16;38.90;31.50
45843;DHT22;31563;51.744;8.252;2023-07-29T10:47:44;39.60;32.40
45843;DHT22;31563;51.744;8.252;2023-07-29T10:50:16;38.10;32.60
45843;DHT22;31563;51.744;8.252;2023-07-29T10:52:48;35.60;35.40
45843;DHT22;31563;51.744;8.252;2023-07-29T10:55:24;34.30;38.10
45843;DHT22;31563;51.744;8.252;2023-07-29T10:57:52;32.30;40.30
45843;DHT22;31563;51.744;8.252;2023-07-29T11:00:21;31.30;41.80
45843;DHT22;31563;51.744;8.252;2023-07-29T11:02:56;32.60;42.50
45843;DHT22;31563;51.744;8.252;2023-07-29T11:05:26;33.20;39.90
45843;DHT22;31563;51.744;8.252;2023-07-29T11:07:55;32.90;39.70
45843;DHT22;31563;51.744;8.252;2023-07-29T11:10:23;35.10;38.40
45843;DHT22;31563;51.744;8.252;2023-07-29T11:12:51;36.70;36.40
45843;DHT22;31563;51.744;8.252;2023-07-29T11:15:21;36.80;34.50
45843;DHT22;31563;51.744;8.252;2023-07-29T11:17:50;37.60;35.00
45843;DHT22;31563;51.744;8.252;2023-07-29T11:20:18;38.90;34.20
45843;DHT22;31563;51.744;8.252;2023-07-29T11:22:46;39.20;33.30
45843;DHT22;31563;51.744;8.252;2023-07-29T11:25:16;39.80;33.20
45843;DHT22;31563;51.744;8.252;2023-07-29T11:27:44;39.50;33.30
45843;DHT22;31563;51.744;8.252;2023-07-29T11:30:12;40.70;32.20
45843;DHT22;31563;51.744;8.252;2023-07-29T11:32:41;40.50;31.10
45843;DHT22;31563;51.744;8.252;2023-07-29T11:35:09;40.00;30.60
45843;DHT22;31563;51.744;8.252;2023-07-29T11:37:37;37.40;33.50
45843;DHT22;31563;51.744;8.252;2023-07-29T11:40:06;35.10;36.40
45843;DHT22;31563;51.744;8.252;2023-07-29T11:42:37;35.50;37.00
45843;DHT22;31563;51.744;8.252;2023-07-29T11:45:06;34.90;37.20
45843;DHT22;31563;51.744;8.252;2023-07-29T11:47:34;34.60;37.40
45843;DHT22;31563;51.744;8.252;2023-07-29T11:50:04;35.90;38.40
45843;DHT22;31563;51.744;8.252;2023-07-29T11:52:32;37.30;36.70
45843;DHT22;31563;51.744;8.252;2023-07-29T11:55:00;37.80;34.50
45843;DHT22;31563;51.744;8.252;2023-07-29T11:57:28;38.10;33.80
45843;DHT22;31563;51.744;8.252;2023-07-29T11:59:57;38.80;33.50
45843;DHT22;31563;51.744;8.252;2023-07-29T12:02:25;37.00;34.00
45843;DHT22;31563;51.744;8.252;2023-07-29T12:04:53;35.30;37.00
45843;DHT22;31563;51.744;8.252;2023-07-29T12:07:21;35.00;37.70
45843;DHT22;31563;51.744;8.252;2023-07-29T12:09:48;35.60;38.60
45843;DHT22;31563;51.744;8.252;2023-07-29T12:12:16;36.10;35.90
45843;DHT22;31563;51.744;8.252;2023-07-29T12:14:45;35.00;37.00
45843;DHT22;31563;51.744;8.252;2023-07-29T12:17:15;33.80;39.00
45843;DHT22;31563;51.744;8.252;2023-07-29T12:19:43;33.40;40.00
45843;DHT22;31563;51.744;8.252;2023-07-29T12:22:10;33.40;40.10
45843;DHT22;31563;51.744;8.252;2023-07-29T12:24:39;33.90;40.40
45843;DHT22;31563;51.744;8.252;2023-07-29T12:27:10;37.20;36.30
45843;DHT22;31563;51.744;8.252;2023-07-29T12:29:41;39.80;33.70
45843;DHT22;31563;51.744;8.252;2023-07-29T12:32:09;41.50;32.50
45843;DHT22;31563;51.744;8.252;2023-07-29T12:34:38;43.10;30.60
45843;DHT22;31563;51.744;8.252;2023-07-29T12:37:06;44.00;30.00
45843;DHT22;31563;51.744;8.252;2023-07-29T12:39:35;44.70;29.50
45843;DHT22;31563;51.744;8.252;2023-07-29T12:42:03;44.70;29.00
45843;DHT22;31563;51.744;8.252;2023-07-29T12:44:31;43.30;30.00
45843;DHT22;31563;51.744;8.252;2023-07-29T12:47:00;42.70;29.90
45843;DHT22;31563;51.744;8.252;2023-07-29T12:49:29;42.00;31.30
45843;DHT22;31563;51.744;8.252;2023-07-29T12:51:58;42.20;30.90
45843;DHT22;31563;51.744;8.252;2023-07-29T12:54:26;41.70;30.60
45843;DHT22;31563;51.744;8.252;2023-07-29T12:56:54;41.70;30.50
45843;DHT22;31563;51.744;8.252;2023-07-29T12:59:21;39.60;31.20
45843;DHT22;31563;51.744;8.252;2023-07-29T13:01:49;38.10;32.90
45843;DHT22;31563;51.744;8.252;2023-07-29T13:04:17;36.80;34.70
45843;DHT22;31563;51.744;8.252;2023-07-29T13:06:44;36.80;34.80
45843;DHT22;31563;51.744;8.252;2023-07-29T13:09:13;36.00;35.50
45843;DHT22;31563;51.744;8.252;2023-07-29T13:11:41;35.60;36.00
45843;DHT22;31563;51.744;8.252;2023-07-29T13:14:09;35.00;36.90
45843;DHT22;31563;51.744;8.252;2023-07-29T13:16:37;34.70;37.80
45843;DHT22;31563;51.744;8.252;2023-07-29T13:19:05;34.30;38.10
45843;DHT22;31563;51.744;8.252;2023-07-29T13:21:33;34.20;38.70
45843;DHT22;31563;51.744;8.252;2023-07-29T13:24:00;34.30;38.70
45843;DHT22;31563;51.744;8.252;2023-07-29T13:26:30;34.10;38.50
45843;DHT22;31563;51.744;8.252;2023-07-29T13:28:57;33.70;39.20
45843;DHT22;31563;51.744;8.252;2023-07-29T13:31:25;33.70;39.40
45843;DHT22;31563;51.744;8.252;2023-07-29T13:33:53;33.50;39.60
45843;DHT22;31563;51.744;8.252;2023-07-29T13:36:21;33.00;40.20
45843;DHT22;31563;51.744;8.252;2023-07-29T13:38:49;32.50;41.40
45843;DHT22;31563;51.744;8.252;2023-07-29T13:41:16;32.00;42.70
45843;DHT22;31563;51.744;8.252;2023-07-29T13:43:46;31.70;43.40
45843;DHT22;31563;51.744;8.252;2023-07-29T13:46:13;31.40;44.00
45843;DHT22;31563;51.744;8.252;2023-07-29T13:48:41;31.50;44.10
45843;DHT22;31563;51.744;8.252;2023-07-29T13:51:09;31.70;43.80
45843;DHT22;31563;51.744;8.252;2023-07-29T13:53:37;32.10;43.40
45843;DHT22;31563;51.744;8.252;2023-07-29T13:56:04;31.90;42.50
45843;DHT22;31563;51.744;8.252;2023-07-29T13:58:32;31.30;43.40
45843;DHT22;31563;51.744;8.252;2023-07-29T14:01:01;30.60;44.60
45843;DHT22;31563;51.744;8.252;2023-07-29T14:03:29;30.30;45.30
45843;DHT22;31563;51.744;8.252;2023-07-29T14:05:57;30.50;45.40
45843;DHT22;31563;51.744;8.252;2023-07-29T14:08:25;31.50;43.30
45843;DHT22;31563;51.744;8.252;2023-07-29T14:10:52;31.60;43.60
45843;DHT22;31563;51.744;8.252;2023-07-29T14:13:20;31.40;43.80
45843;DHT22;31563;51.744;8.252;2023-07-29T14:15:48;32.00;44.60
45843;DHT22;31563;51.744;8.252;2023-07-29T14:18:17;32.20;43.20
45843;DHT22;31563;51.744;8.252;2023-07-29T14:20:45;31.90;42.60
45843;DHT22;31563;51.744;8.252;2023-07-29T14:24:03;32.00;42.70
45843;DHT22;31563;51.744;8.252;2023-07-29T14:27:49;29.00;47.20
45843;DHT22;31563;51.744;8.252;2023-07-29T14:30:17;30.00;45.80
45843;DHT22;31563;51.744;8.252;2023-07-29T14:32:45;31.00;43.70
45843;DHT22;31563;51.744;8.252;2023-07-29T14:35:13;30.80;43.30
45843;DHT22;31563;51.744;8.252;2023-07-29T14:37:41;30.50;43.50
45843;DHT22;31563;51.744;8.252;2023-07-29T14:40:09;30.30;44.20
45843;DHT22;31563;51.744;8.252;2023-07-29T14:42:37;30.30;44.60
45843;DHT22;31563;51.744;8.252;2023-07-29T14:45:07;30.00;44.90
45843;DHT22;31563;51.744;8.252;2023-07-29T14:47:35;30.00;45.10
45843;DHT22;31563;51.744;8.252;2023-07-29T14:50:04;29.90;44.90
45843;DHT22;31563;51.744;8.252;2023-07-29T14:52:32;29.70;45.40
45843;DHT22;31563;51.744;8.252;2023-07-29T14:55:00;29.40;45.80
45843;DHT22;31563;51.744;8.252;2023-07-29T14:57:28;29.10;46.20
45843;DHT22;31563;51.744;8.252;2023-07-29T14:59:56;28.80;46.90
45843;DHT22;31563;51.744;8.252;2023-07-29T15:02:25;28.50;47.90
45843;DHT22;31563;51.744;8.252;2023-07-29T15:04:53;28.20;49.20
45843;DHT22;31563;51.744;8.252;2023-07-29T15:07:21;27.80;50.10
45843;DHT22;31563;51.744;8.252;2023-07-29T15:09:49;27.60;50.60
45843;DHT22;31563;51.744;8.252;2023-07-29T15:12:17;27.40;51.40
45843;DHT22;31563;51.744;8.252;2023-07-29T15:14:45;27.30;51.40
45843;DHT22;31563;51.744;8.252;2023-07-29T15:17:14;27.20;51.40
45843;DHT22;31563;51.744;8.252;2023-07-29T15:19:44;27.00;52.00
45843;DHT22;31563;51.744;8.252;2023-07-29T15:22:16;26.70;52.40
45843;DHT22;31563;51.744;8.252;2023-07-29T15:24:44;26.30;53.60
45843;DHT22;31563;51.744;8.252;2023-07-29T15:27:13;25.90;55.40
45843;DHT22;31563;51.744;8.252;2023-07-29T15:29:41;25.70;56.70
45843;DHT22;31563;51.744;8.252;2023-07-29T15:32:09;25.60;57.90
45843;DHT22;31563;51.744;8.252;2023-07-29T15:34:37;25.50;58.50
45843;DHT22;31563;51.744;8.252;2023-07-29T15:37:06;25.70;58.30
45843;DHT22;31563;51.744;8.252;2023-07-29T15:39:34;25.80;57.90